createdAt,value
2023-04-15T00:01:01.641Z,70.60
2023-04-15T00:03:29.683Z,70.50
2023-04-15T00:05:57.814Z,70.40
2023-04-15T00:08:24.672Z,70.40
2023-04-15T00:10:51.501Z,70.50
2023-04-15T00:13:18.326Z,70.40
2023-04-15T00:15:45.081Z,70.60
2023-04-15T00:18:11.917Z,70.50
2023-04-15T00:20:38.915Z,70.80
2023-04-15T00:23:05.778Z,70.20
2023-04-15T00:25:33.077Z,70.30
2023-04-15T00:27:59.961Z,70.90
2023-04-15T00:30:26.895Z,70.80
2023-04-15T00:32:53.889Z,71.10
2023-04-15T00:35:22.460Z,70.90
2023-04-15T00:37:51.420Z,71.20
2023-04-15T00:40:21.079Z,71.00
2023-04-15T00:42:48.299Z,71.30
2023-04-15T00:45:15.803Z,71.10
2023-04-15T00:47:43.759Z,71.20
2023-04-15T00:50:12.560Z,71.50
2023-04-15T00:52:40.606Z,71.60
2023-04-15T00:55:08.770Z,71.70
2023-04-15T00:57:36.441Z,71.80
2023-04-15T01:00:05.696Z,71.90
2023-04-15T01:02:33.546Z,72.00
2023-04-15T01:05:04.032Z,71.80
2023-04-15T01:07:32.091Z,71.90
2023-04-15T01:09:59.249Z,72.10
2023-04-15T01:12:27.594Z,72.20
2023-04-15T01:14:55.363Z,72.00
2023-04-15T01:17:22.216Z,71.80
2023-04-15T01:19:49.200Z,71.80
2023-04-15T01:22:16.507Z,71.80
2023-04-15T01:24:56.245Z,71.40
2023-04-15T01:27:23.317Z,71.70
2023-04-15T01:29:50.230Z,71.80
2023-04-15T01:32:17.132Z,71.90
2023-04-15T01:34:44.351Z,71.90
2023-04-15T01:37:11.687Z,71.90
2023-04-15T01:39:39.537Z,71.80
2023-04-15T01:42:06.876Z,72.00
2023-04-15T01:44:33.816Z,72.00
2023-04-15T01:47:00.752Z,72.10
2023-04-15T01:49:27.655Z,72.40
2023-04-15T01:51:54.906Z,72.20
2023-04-15T01:54:21.816Z,72.50
2023-04-15T01:56:48.662Z,72.60
2023-04-15T01:59:15.505Z,72.70
2023-04-15T02:01:42.360Z,72.60
2023-04-15T02:04:16.441Z,72.40
2023-04-15T02:06:43.984Z,72.70
2023-04-15T02:09:12.482Z,72.80
2023-04-15T02:11:39.520Z,72.90
2023-04-15T02:14:06.537Z,72.90
2023-04-15T02:16:33.973Z,72.90
2023-04-15T02:19:01.421Z,73.10
2023-04-15T02:21:28.547Z,73.00
2023-04-15T02:23:55.920Z,73.20
2023-04-15T02:26:22.989Z,73.20
2023-04-15T02:28:51.387Z,73.40
2023-04-15T02:31:18.502Z,73.40
2023-04-15T02:33:45.406Z,73.30
2023-04-15T02:36:12.417Z,73.50
2023-04-15T02:38:42.281Z,73.70
2023-04-15T02:41:11.804Z,73.70
2023-04-15T02:43:40.017Z,73.70
2023-04-15T02:46:08.482Z,73.80
2023-04-15T02:48:35.991Z,73.70
2023-04-15T02:51:19.632Z,73.90
2023-04-15T02:53:48.383Z,74.10
2023-04-15T02:56:17.033Z,73.90
2023-04-15T02:58:45.725Z,73.80
2023-04-15T03:01:13.023Z,74.00
2023-04-15T03:03:41.034Z,74.10
2023-04-15T03:06:09.070Z,73.90
2023-04-15T03:08:36.434Z,74.10
2023-04-15T03:11:03.903Z,73.90
2023-04-15T03:13:31.855Z,74.20
2023-04-15T03:16:02.511Z,74.10
2023-04-15T03:18:31.246Z,74.30
2023-04-15T03:21:02.655Z,74.30
2023-04-15T03:23:32.070Z,74.10
2023-04-15T03:26:02.414Z,74.20
2023-04-15T03:28:31.160Z,74.10
2023-04-15T03:30:59.398Z,74.20
2023-04-15T03:33:26.323Z,74.20
2023-04-15T03:35:53.514Z,74.20
2023-04-15T03:38:20.668Z,74.10
2023-04-15T03:40:47.567Z,74.30
2023-04-15T03:43:14.435Z,74.20
2023-04-15T03:45:41.258Z,74.20
2023-04-15T03:48:17.363Z,74.40
2023-04-15T03:50:46.041Z,74.20
2023-04-15T03:53:13.006Z,74.20
2023-04-15T03:55:40.003Z,74.20
2023-04-15T03:58:06.968Z,74.30
2023-04-15T04:00:33.851Z,74.30
2023-04-15T04:03:00.677Z,74.50
2023-04-15T04:05:27.754Z,74.30
2023-04-15T04:07:54.596Z,74.40
2023-04-15T04:10:21.527Z,74.30
2023-04-15T04:12:48.559Z,74.40
2023-04-15T04:15:15.942Z,74.60
2023-04-15T04:17:42.954Z,74.60
2023-04-15T04:20:10.094Z,74.60
2023-04-15T04:22:41.245Z,74.60
2023-04-15T04:25:10.041Z,74.60
2023-04-15T04:27:36.964Z,74.70
2023-04-15T04:30:04.880Z,74.70
2023-04-15T04:32:31.756Z,74.70
2023-04-15T04:34:58.667Z,74.60
2023-04-15T04:37:25.759Z,74.70
2023-04-15T04:39:52.554Z,74.70
2023-04-15T04:42:19.425Z,74.80
2023-04-15T04:44:46.408Z,74.80
2023-04-15T04:47:14.164Z,74.80
2023-04-15T04:49:41.205Z,74.80
2023-04-15T04:52:07.969Z,74.70
2023-04-15T04:54:34.808Z,74.80
2023-04-15T04:57:01.703Z,74.80
2023-04-15T04:59:28.503Z,75.00
2023-04-15T05:01:55.550Z,74.80
2023-04-15T05:04:22.848Z,74.80
2023-04-15T05:06:49.671Z,74.80
2023-04-15T05:09:16.510Z,74.80
2023-04-15T05:11:43.352Z,74.90
2023-04-15T05:14:10.186Z,75.00
2023-04-15T05:16:37.354Z,75.10
2023-04-15T05:19:04.164Z,75.10
2023-04-15T05:21:31.659Z,75.10
2023-04-15T05:23:58.393Z,75.20
2023-04-15T05:26:25.309Z,75.20
2023-04-15T05:28:52.056Z,75.20
2023-04-15T05:31:18.899Z,75.20
2023-04-15T05:33:45.659Z,75.10
2023-04-15T05:36:12.768Z,75.10
2023-04-15T05:38:39.580Z,75.20
2023-04-15T05:41:06.685Z,75.20
2023-04-15T05:43:33.547Z,75.30
2023-04-15T05:46:00.643Z,75.40
2023-04-15T05:48:27.501Z,75.30
2023-04-15T05:50:54.521Z,75.20
2023-04-15T05:53:21.988Z,75.20
2023-04-15T05:55:48.860Z,75.20
2023-04-15T05:58:15.839Z,75.20
2023-04-15T06:00:42.623Z,75.20
2023-04-15T06:03:09.641Z,75.00
2023-04-15T06:05:36.483Z,75.10
2023-04-15T06:08:03.340Z,75.10
2023-04-15T06:10:30.868Z,75.00
2023-04-15T06:12:57.791Z,75.10
2023-04-15T06:15:24.639Z,75.10
2023-04-15T06:17:51.601Z,74.90
2023-04-15T06:20:18.880Z,74.90
2023-04-15T06:22:45.714Z,74.90
2023-04-15T06:25:12.727Z,74.90
2023-04-15T06:27:39.717Z,74.90
2023-04-15T06:30:07.629Z,74.70
2023-04-15T06:32:34.619Z,74.80
2023-04-15T06:35:01.601Z,74.60
2023-04-15T06:37:28.490Z,74.80
2023-04-15T06:39:55.269Z,74.50
2023-04-15T06:42:22.841Z,74.40
2023-04-15T06:44:49.927Z,74.30
2023-04-15T06:47:16.808Z,74.50
2023-04-15T06:49:43.916Z,74.50
2023-04-15T06:52:11.342Z,74.50
2023-04-15T06:54:38.119Z,74.20
2023-04-15T06:57:04.988Z,74.20
2023-04-15T06:59:31.845Z,74.20
2023-04-15T07:01:58.719Z,74.20
2023-04-15T07:04:25.738Z,74.20
2023-04-15T07:06:52.734Z,74.30
2023-04-15T07:09:19.888Z,74.20
2023-04-15T07:11:46.673Z,74.00
2023-04-15T07:14:13.464Z,73.80
2023-04-15T07:16:40.247Z,73.60
2023-04-15T07:19:07.381Z,73.50
2023-04-15T07:21:34.195Z,73.40
2023-04-15T07:24:01.292Z,73.20
2023-04-15T07:26:28.295Z,73.20
2023-04-15T07:28:55.556Z,73.20
2023-04-15T07:31:22.457Z,72.70
2023-04-15T07:33:49.374Z,72.30
2023-04-15T07:36:16.139Z,71.90
2023-04-15T07:38:43.156Z,71.50
2023-04-15T07:41:10.583Z,71.60
2023-04-15T07:43:37.353Z,71.60
2023-04-15T07:46:04.443Z,70.80
2023-04-15T07:48:31.457Z,70.50
2023-04-15T07:50:58.979Z,70.40
2023-04-15T07:53:26.171Z,69.60
2023-04-15T07:55:53.004Z,70.00
2023-04-15T07:58:19.848Z,70.60
2023-04-15T08:00:46.712Z,69.50
2023-04-15T08:03:13.763Z,69.90
2023-04-15T08:05:40.999Z,68.70
2023-04-15T08:08:08.478Z,68.30
2023-04-15T08:10:35.353Z,66.00
2023-04-15T08:13:02.223Z,64.40
2023-04-15T08:15:29.190Z,63.70
2023-04-15T08:17:56.085Z,61.60
2023-04-15T08:20:23.645Z,61.00
2023-04-15T08:22:52.172Z,59.90
2023-04-15T08:25:19.951Z,56.10
2023-04-15T08:27:46.989Z,54.60
2023-04-15T08:30:14.464Z,53.70
2023-04-15T08:32:46.242Z,52.50
2023-04-15T08:35:13.849Z,50.90
2023-04-15T08:37:40.580Z,49.00
2023-04-15T08:40:09.359Z,50.10
2023-04-15T08:42:42.877Z,49.80
2023-04-15T08:45:13.648Z,48.30
2023-04-15T08:47:41.858Z,47.70
2023-04-15T08:50:10.694Z,48.10
2023-04-15T08:52:38.339Z,46.20
2023-04-15T08:55:06.919Z,44.30
2023-04-15T08:57:34.276Z,45.00
2023-04-15T09:00:05.525Z,46.70
2023-04-15T09:02:32.938Z,45.50
2023-04-15T09:04:59.839Z,46.30
2023-04-15T09:07:27.076Z,45.60
2023-04-15T09:09:54.186Z,45.10
2023-04-15T09:12:21.813Z,43.10
2023-04-15T09:14:49.469Z,41.60
2023-04-15T09:17:21.770Z,40.60
2023-04-15T09:19:48.847Z,39.30
2023-04-15T09:22:15.838Z,40.30
2023-04-15T09:24:43.479Z,40.20
2023-04-15T09:27:11.183Z,39.70
2023-04-15T09:29:38.222Z,40.60
2023-04-15T09:32:15.583Z,39.80
2023-04-15T09:34:43.044Z,39.00
2023-04-15T09:37:11.248Z,38.80
2023-04-15T09:39:50.065Z,37.40
2023-04-15T09:42:23.952Z,35.90
2023-04-15T09:44:52.727Z,37.30
2023-04-15T09:47:32.604Z,37.00
2023-04-15T09:50:00.927Z,37.30
2023-04-15T09:52:28.684Z,36.70
2023-04-15T09:54:58.057Z,35.90
2023-04-15T09:57:25.230Z,36.70
2023-04-15T09:59:52.380Z,36.90
2023-04-15T10:02:23.045Z,36.80
2023-04-15T10:04:51.808Z,36.60
2023-04-15T10:07:22.647Z,36.40
2023-04-15T10:09:50.124Z,35.90
2023-04-15T10:12:21.599Z,36.10
2023-04-15T10:14:53.048Z,36.50
2023-04-15T10:17:22.970Z,36.90
2023-04-15T10:19:52.929Z,36.50
2023-04-15T10:22:19.940Z,36.80
2023-04-15T10:24:47.634Z,37.60
2023-04-15T10:27:14.565Z,37.50
2023-04-15T10:29:42.276Z,37.10
2023-04-15T10:32:09.838Z,37.30
2023-04-15T10:34:37.724Z,37.40
2023-04-15T10:37:04.785Z,37.40
2023-04-15T10:39:34.698Z,37.30
2023-04-15T10:42:33.817Z,37.70
2023-04-15T10:45:00.758Z,37.40
2023-04-15T10:47:28.576Z,38.20
2023-04-15T10:50:00.408Z,37.50
2023-04-15T10:52:28.573Z,38.00
2023-04-15T10:55:16.384Z,37.50
2023-04-15T10:57:43.859Z,36.60
2023-04-15T11:00:15.923Z,36.40
2023-04-15T11:02:59.340Z,35.60
2023-04-15T11:05:41.760Z,35.90
2023-04-15T11:08:09.943Z,36.40
2023-04-15T11:10:36.778Z,35.50
2023-04-15T11:13:04.573Z,35.40
2023-04-15T11:15:41.661Z,35.50
2023-04-15T11:18:19.955Z,35.00
2023-04-15T11:20:53.836Z,35.10
2023-04-15T11:23:46.779Z,35.40
2023-04-15T11:26:14.044Z,34.30
2023-04-15T11:28:44.782Z,34.50
2023-04-15T11:31:15.342Z,34.00
2023-04-15T11:33:55.588Z,34.40
2023-04-15T11:36:27.270Z,35.60
2023-04-15T11:38:54.197Z,35.50
2023-04-15T11:41:24.701Z,35.90
2023-04-15T11:43:52.227Z,36.20
2023-04-15T11:46:19.622Z,36.90
2023-04-15T11:48:47.542Z,36.40
2023-04-15T11:51:14.866Z,35.90
2023-04-15T11:53:49.777Z,35.40
2023-04-15T11:56:21.981Z,35.10
2023-04-15T11:59:08.028Z,35.40
2023-04-15T12:01:39.832Z,36.00
2023-04-15T12:04:25.213Z,35.90
2023-04-15T12:06:52.985Z,36.30
2023-04-15T12:09:20.460Z,36.50
2023-04-15T12:11:58.201Z,35.30
2023-04-15T12:14:32.118Z,34.30
2023-04-15T12:17:01.509Z,34.90
2023-04-15T12:19:34.752Z,36.00
2023-04-15T12:22:06.684Z,35.30
2023-04-15T12:24:34.895Z,35.30
2023-04-15T12:27:09.857Z,34.60
2023-04-15T12:29:39.076Z,34.20
2023-04-15T12:32:17.000Z,35.30
2023-04-15T12:34:52.707Z,34.70
2023-04-15T12:37:19.834Z,34.40
2023-04-15T12:39:49.294Z,35.10
2023-04-15T12:42:17.000Z,34.60
2023-04-15T12:44:43.999Z,35.00
2023-04-15T12:47:11.824Z,35.30
2023-04-15T12:49:39.523Z,35.90
2023-04-15T12:52:06.797Z,36.30
2023-04-15T12:54:34.353Z,35.90
2023-04-15T12:57:01.405Z,34.70
2023-04-15T12:59:28.445Z,34.70
2023-04-15T13:01:55.619Z,34.80
2023-04-15T13:04:23.121Z,34.50
2023-04-15T13:06:50.417Z,34.90
2023-04-15T13:09:17.275Z,34.50
2023-04-15T13:11:44.186Z,34.70
2023-04-15T13:14:13.094Z,34.80
2023-04-15T13:16:40.847Z,35.30
2023-04-15T13:19:08.011Z,35.20
2023-04-15T13:21:36.188Z,35.10
2023-04-15T13:24:04.274Z,35.30
2023-04-15T13:26:31.784Z,36.00
2023-04-15T13:28:58.709Z,36.40
2023-04-15T13:31:26.286Z,37.10
2023-04-15T13:33:53.347Z,37.90
2023-04-15T13:36:20.171Z,38.30
2023-04-15T13:38:48.645Z,38.00
2023-04-15T13:41:17.325Z,37.50
2023-04-15T13:43:44.138Z,37.40
2023-04-15T13:46:11.159Z,36.90
2023-04-15T13:48:38.099Z,36.40
2023-04-15T13:51:05.008Z,35.60
2023-04-15T13:53:37.635Z,35.80
2023-04-15T13:56:07.771Z,36.70
2023-04-15T13:58:34.634Z,37.60
2023-04-15T14:01:03.222Z,37.40
2023-04-15T14:03:31.848Z,37.10
2023-04-15T14:05:59.414Z,36.80
2023-04-15T14:08:26.307Z,37.20
2023-04-15T14:10:53.218Z,37.10
2023-04-15T14:13:19.995Z,36.90
2023-04-15T14:15:47.421Z,36.80
2023-04-15T14:18:14.347Z,36.90
2023-04-15T14:20:41.100Z,37.20
2023-04-15T14:23:08.145Z,37.50
2023-04-15T14:25:35.033Z,38.60
2023-04-15T14:28:03.479Z,39.30
2023-04-15T14:30:30.901Z,39.60
2023-04-15T14:32:57.993Z,40.60
2023-04-15T14:35:26.658Z,41.20
2023-04-15T14:37:54.435Z,41.70
2023-04-15T14:40:21.747Z,42.70
2023-04-15T14:42:48.783Z,43.50
2023-04-15T14:45:15.754Z,44.20
2023-04-15T14:47:42.591Z,44.50
2023-04-15T14:50:09.964Z,44.10
2023-04-15T14:52:39.812Z,43.70
2023-04-15T14:55:07.994Z,43.80
2023-04-15T14:57:34.788Z,44.60
2023-04-15T15:00:01.819Z,45.40
2023-04-15T15:02:38.300Z,45.40
2023-04-15T15:05:06.910Z,45.30
2023-04-15T15:07:33.859Z,45.20
2023-04-15T15:10:00.803Z,44.40
2023-04-15T15:12:27.734Z,44.10
2023-04-15T15:14:55.721Z,44.30
2023-04-15T15:17:22.674Z,44.40
2023-04-15T15:19:49.578Z,44.10
2023-04-15T15:22:16.587Z,44.40
2023-04-15T15:24:43.409Z,44.70
2023-04-15T15:27:10.458Z,45.00
2023-04-15T15:29:38.088Z,45.60
2023-04-15T15:32:05.171Z,45.70
2023-04-15T15:34:31.930Z,46.00
2023-04-15T15:36:58.780Z,46.10
2023-04-15T15:39:25.929Z,46.40
2023-04-15T15:41:52.839Z,46.70
2023-04-15T15:44:19.680Z,46.70
2023-04-15T15:46:46.462Z,47.20
2023-04-15T15:49:13.299Z,47.50
2023-04-15T15:51:40.157Z,48.00
2023-04-15T15:54:06.949Z,48.70
2023-04-15T15:56:35.052Z,48.90
2023-04-15T15:59:01.906Z,48.20
2023-04-15T16:01:28.962Z,47.70
2023-04-15T16:03:55.792Z,47.70
2023-04-15T16:06:22.736Z,48.00
2023-04-15T16:08:49.686Z,48.50
2023-04-15T16:11:16.453Z,49.00
2023-04-15T16:13:43.266Z,49.40
2023-04-15T16:16:10.053Z,49.80
2023-04-15T16:18:36.841Z,50.20
2023-04-15T16:21:03.817Z,50.10
2023-04-15T16:23:31.354Z,50.40
2023-04-15T16:25:58.170Z,50.70
2023-04-15T16:28:27.181Z,50.70
2023-04-15T16:30:54.827Z,50.90
2023-04-15T16:33:21.799Z,51.00
2023-04-15T16:35:48.668Z,51.40
2023-04-15T16:38:15.645Z,51.70
2023-04-15T16:40:42.650Z,52.10
2023-04-15T16:43:11.381Z,52.60
2023-04-15T16:45:38.691Z,52.80
2023-04-15T16:48:05.800Z,52.90
2023-04-15T16:50:32.838Z,53.10
2023-04-15T16:52:59.702Z,53.20
2023-04-15T16:55:26.806Z,53.20
2023-04-15T16:58:01.596Z,53.40
2023-04-15T17:00:36.203Z,53.30
2023-04-15T17:03:03.595Z,53.50
2023-04-15T17:05:31.139Z,53.90
2023-04-15T17:07:58.533Z,54.30
2023-04-15T17:10:25.376Z,54.70
2023-04-15T17:12:52.783Z,55.10
2023-04-15T17:15:20.029Z,55.60
2023-04-15T17:17:46.886Z,56.00
2023-04-15T17:20:14.089Z,56.10
2023-04-15T17:22:40.912Z,56.40
2023-04-15T17:25:08.175Z,56.50
2023-04-15T17:27:35.251Z,56.70
2023-04-15T17:30:02.163Z,56.20
2023-04-15T17:32:31.844Z,56.20
2023-04-15T17:34:58.910Z,56.50
2023-04-15T17:37:25.845Z,56.40
2023-04-15T17:39:53.245Z,56.30
2023-04-15T17:42:21.476Z,56.60
2023-04-15T17:44:48.234Z,56.90
2023-04-15T17:47:15.165Z,57.10
2023-04-15T17:49:41.952Z,57.40
2023-04-15T17:52:08.774Z,57.40
2023-04-15T17:54:35.808Z,57.60
2023-04-15T17:57:03.251Z,57.80
2023-04-15T17:59:30.347Z,57.70
2023-04-15T18:01:58.703Z,57.70
2023-04-15T18:04:26.832Z,57.90
2023-04-15T18:06:54.214Z,58.20
2023-04-15T18:09:21.138Z,58.40
2023-04-15T18:11:48.876Z,58.50
2023-04-15T18:14:27.111Z,59.00
2023-04-15T18:17:01.368Z,59.50
2023-04-15T18:19:28.375Z,59.60
2023-04-15T18:21:55.184Z,59.60
2023-04-15T18:24:22.749Z,59.60
2023-04-15T18:26:49.668Z,59.90
2023-04-15T18:29:16.668Z,59.90
2023-04-15T18:31:43.702Z,60.30
2023-04-15T18:34:11.013Z,60.40
2023-04-15T18:36:37.792Z,60.60
2023-04-15T18:39:05.105Z,60.80
2023-04-15T18:41:33.206Z,61.10
2023-04-15T18:43:59.979Z,61.30
2023-04-15T18:46:28.126Z,61.40
2023-04-15T18:48:55.040Z,61.50
2023-04-15T18:51:21.813Z,61.70
2023-04-15T18:53:48.706Z,61.70
2023-04-15T18:56:15.479Z,61.80
2023-04-15T18:59:11.594Z,61.60
2023-04-15T19:01:31.643Z,61.60
2023-04-15T19:03:59.372Z,61.80
2023-04-15T19:06:27.082Z,62.10
2023-04-15T19:08:54.330Z,62.20
2023-04-15T19:11:21.744Z,62.40
2023-04-15T19:13:49.139Z,62.60
2023-04-15T19:16:16.101Z,63.00
2023-04-15T19:18:43.129Z,63.30
2023-04-15T19:21:11.347Z,63.30
2023-04-15T19:23:38.528Z,63.50
2023-04-15T19:26:05.741Z,63.60
2023-04-15T19:28:32.614Z,63.50
2023-04-15T19:30:59.527Z,63.50
2023-04-15T19:33:31.421Z,63.40
2023-04-15T19:36:04.187Z,63.40
2023-04-15T19:38:31.699Z,63.60
2023-04-15T19:40:59.072Z,63.60
2023-04-15T19:43:26.004Z,63.60
2023-04-15T19:45:54.663Z,63.50
2023-04-15T19:48:23.086Z,63.60
2023-04-15T19:50:50.035Z,63.70
2023-04-15T19:53:17.025Z,63.80
2023-04-15T19:55:43.850Z,64.00
2023-04-15T19:58:10.677Z,63.90
2023-04-15T20:00:37.813Z,63.90
2023-04-15T20:03:05.632Z,64.00
2023-04-15T20:05:32.683Z,63.80
2023-04-15T20:08:01.399Z,63.90
2023-04-15T20:10:28.307Z,64.00
2023-04-15T20:12:55.118Z,64.00
2023-04-15T20:15:23.714Z,64.10
2023-04-15T20:17:50.848Z,64.10
2023-04-15T20:20:17.653Z,64.20
2023-04-15T20:22:44.440Z,64.30
2023-04-15T20:25:11.422Z,64.50
2023-04-15T20:27:38.312Z,64.50
2023-04-15T20:30:05.676Z,64.80
2023-04-15T20:32:35.900Z,64.80
2023-04-15T20:35:05.062Z,65.00
2023-04-15T20:37:33.562Z,65.10
2023-04-15T20:40:01.047Z,65.20
2023-04-15T20:42:28.324Z,65.20
2023-04-15T20:44:55.154Z,65.30
2023-04-15T20:47:22.087Z,65.40
2023-04-15T20:49:49.040Z,65.60
2023-04-15T20:52:15.822Z,65.60
2023-04-15T20:54:42.696Z,65.80
2023-04-15T20:57:09.582Z,65.90
2023-04-15T20:59:36.605Z,66.10
2023-04-15T21:02:03.568Z,66.20
2023-04-15T21:04:30.458Z,66.30
2023-04-15T21:06:57.402Z,66.50
2023-04-15T21:09:24.929Z,66.70
2023-04-15T21:14:21.456Z,67.10
2023-04-15T21:16:48.565Z,67.20
2023-04-15T21:19:15.352Z,67.50
2023-04-15T21:21:42.124Z,67.60
2023-04-15T21:24:08.998Z,67.80
2023-04-15T21:26:36.168Z,67.90
2023-04-15T21:29:03.487Z,68.00
2023-04-15T21:31:30.613Z,68.20
2023-04-15T21:33:57.490Z,68.20
2023-04-15T21:36:24.400Z,68.40
2023-04-15T21:38:51.192Z,68.50
2023-04-15T21:41:18.061Z,68.60
2023-04-15T21:43:44.850Z,68.60
2023-04-15T21:46:22.295Z,68.80
2023-04-15T21:48:53.053Z,68.90
2023-04-15T21:51:20.233Z,69.10
2023-04-15T21:53:47.288Z,69.20
2023-04-15T21:56:14.259Z,69.10
2023-04-15T21:58:41.130Z,69.10
2023-04-15T22:01:08.084Z,69.20
2023-04-15T22:03:35.693Z,69.30
2023-04-15T22:06:03.895Z,69.50
2023-04-15T22:08:38.138Z,69.50
2023-04-15T22:11:29.609Z,69.60
2023-04-15T22:13:57.351Z,69.70
2023-04-15T22:16:27.816Z,69.70
2023-04-15T22:18:55.183Z,69.90
2023-04-15T22:21:22.268Z,69.90
2023-04-15T22:23:49.799Z,69.90
2023-04-15T22:26:16.691Z,69.90
2023-04-15T22:28:43.623Z,69.90
2023-04-15T22:31:10.537Z,70.10
2023-04-15T22:33:37.541Z,70.10
2023-04-15T22:36:04.453Z,70.10
2023-04-15T22:38:31.483Z,70.10
2023-04-15T22:40:58.543Z,70.20
2023-04-15T22:43:26.079Z,70.40
2023-04-15T22:45:55.761Z,70.50
2023-04-15T22:48:22.927Z,70.60
2023-04-15T22:50:50.273Z,70.60
2023-04-15T22:53:17.742Z,70.80
2023-04-15T22:55:46.753Z,71.00
2023-04-15T22:58:14.604Z,71.10
2023-04-15T23:00:41.541Z,71.20
2023-04-15T23:03:08.630Z,71.30
2023-04-15T23:05:35.862Z,71.60
2023-04-15T23:08:03.278Z,71.60
2023-04-15T23:10:30.057Z,71.90
2023-04-15T23:12:56.768Z,71.90
2023-04-15T23:15:23.843Z,72.10
2023-04-15T23:17:50.698Z,72.20
2023-04-15T23:20:17.615Z,72.10
2023-04-15T23:22:44.590Z,72.40
2023-04-15T23:25:11.396Z,72.40
2023-04-15T23:27:38.302Z,72.70
2023-04-15T23:30:05.915Z,73.00
2023-04-15T23:32:32.715Z,73.20
2023-04-15T23:34:59.562Z,73.50
2023-04-15T23:37:26.301Z,73.70
2023-04-15T23:39:53.133Z,74.10
2023-04-15T23:42:20.032Z,74.40
2023-04-15T23:44:46.972Z,74.50
2023-04-15T23:47:13.792Z,74.70
2023-04-15T23:49:41.092Z,75.10
2023-04-15T23:52:07.996Z,75.10
2023-04-15T23:54:34.993Z,75.50
2023-04-15T23:57:03.427Z,75.60
2023-04-15T23:59:30.257Z,75.80
